Capitol Logistics 2116

Operating for AJT



KCVG
Cincinnati/Northern Kentucky International Airport
Covington, Kentucky
KAUS
Austin-Bergstrom International Airport
Austin, Texas

Activity Log

Date Flight Route Aircraft Duration
05/07/2021 CPX2116 CHCLL5 IIU PXV LIT J131 TXK WINDU SEWZY5 B763 2h 31m

Route Details

Aircraft Information
Group: Boeing Common
Types: B752,B762,B763
Route Data
Demand: H
Distance: 833nm
Duration: 2h 41m
Recm'd Route: CHCLL5 IIU PXV LIT J131 TXK WINDU SEWZY5
Origin Wx: KCVG 242052Z 09008KT 10SM FEW041 BKN300 23/15 A3010 RMK AO2 SLP187 T02330150 56014
Dest. Wx: KAUS 242053Z 17012KT 10SM SCT050 SCT080 BKN200 29/17 A2969 RMK AO2 SLP045 T02940172 58012
Notes:

Financial History
Total Freight: 102,271lbs
Average Load: 102,271lbs/flt
Fuel Used: 25,866lbs
Avg. Fuel Used: 25,866lbs/flt
Fuel Expense: $6,467
Avg. Fuel Expense: $6,467
Avg. Fuel Cost: $0.25/lbs
Total Gross Income: $223,973
Pilot Pay: $79
Total Expenses: $24,592
Total Revenue: $192,715
Average Revenue: $223,973.48